createdAt,value
2023-05-04T00:00:51.423Z,9.90
2023-05-04T00:03:18.640Z,9.43
2023-05-04T00:05:46.158Z,10.07
2023-05-04T00:08:13.318Z,9.88
2023-05-04T00:10:40.327Z,12.52
2023-05-04T00:13:07.708Z,9.55
2023-05-04T00:15:34.916Z,9.82
2023-05-04T00:18:02.517Z,11.02
2023-05-04T00:20:29.644Z,10.98
2023-05-04T00:22:56.722Z,10.88
2023-05-04T00:25:23.740Z,10.02
2023-05-04T00:27:50.933Z,10.77
2023-05-04T00:30:18.090Z,9.35
2023-05-04T00:32:45.371Z,10.23
2023-05-04T00:35:12.879Z,9.73
2023-05-04T00:37:40.150Z,10.13
2023-05-04T00:40:08.218Z,10.23
2023-05-04T00:42:35.574Z,9.43
2023-05-04T00:45:02.951Z,9.95
2023-05-04T00:47:30.264Z,10.68
2023-05-04T00:49:57.649Z,10.93
2023-05-04T00:52:24.954Z,11.20
2023-05-04T00:54:53.147Z,12.60
2023-05-04T00:57:21.113Z,10.38
2023-05-04T00:59:48.363Z,10.15
2023-05-04T01:02:15.823Z,12.32
2023-05-04T01:04:43.028Z,11.68
2023-05-04T01:07:34.686Z,13.05
2023-05-04T01:10:12.165Z,10.63
2023-05-04T01:12:48.094Z,10.23
2023-05-04T01:15:15.991Z,9.32
2023-05-04T01:17:43.085Z,11.23
2023-05-04T01:20:10.525Z,11.00
2023-05-04T01:22:38.797Z,9.77
2023-05-04T01:25:06.866Z,11.18
2023-05-04T01:27:48.114Z,8.90
2023-05-04T01:30:26.143Z,12.88
2023-05-04T01:32:53.665Z,10.13
2023-05-04T01:35:20.940Z,10.43
2023-05-04T01:37:47.989Z,10.73
2023-05-04T01:40:15.801Z,11.32
2023-05-04T01:42:43.047Z,11.55
2023-05-04T01:45:10.762Z,15.38
2023-05-04T01:47:38.101Z,11.45
2023-05-04T01:50:06.200Z,10.50
2023-05-04T01:52:33.575Z,13.23
2023-05-04T01:55:00.864Z,12.20
2023-05-04T01:57:28.221Z,14.73
2023-05-04T01:59:55.617Z,13.55
2023-05-04T02:02:23.438Z,13.52
2023-05-04T02:04:50.888Z,13.00
2023-05-04T02:07:18.338Z,11.70
2023-05-04T02:09:45.817Z,11.07
2023-05-04T02:12:12.928Z,13.95
2023-05-04T02:14:40.054Z,13.45
2023-05-04T02:17:07.576Z,10.82
2023-05-04T02:19:34.632Z,12.75
2023-05-04T02:22:01.882Z,13.73
2023-05-04T02:24:29.066Z,13.95
2023-05-04T02:26:56.271Z,12.60
2023-05-04T02:29:23.503Z,13.80
2023-05-04T02:31:50.714Z,16.27
2023-05-04T02:34:17.859Z,16.60
2023-05-04T02:36:44.940Z,15.93
2023-05-04T02:39:12.131Z,14.05
2023-05-04T02:41:39.204Z,15.50
2023-05-04T02:44:06.294Z,14.32
2023-05-04T02:46:33.513Z,15.27
2023-05-04T02:49:00.632Z,17.20
2023-05-04T02:51:27.785Z,15.95
2023-05-04T02:53:55.034Z,13.35
2023-05-04T02:56:22.251Z,15.32
2023-05-04T02:58:49.646Z,19.15
2023-05-04T03:01:16.922Z,15.13
2023-05-04T03:03:44.249Z,15.45
2023-05-04T03:06:11.748Z,16.73
2023-05-04T03:08:38.964Z,16.42
2023-05-04T03:11:06.280Z,18.75
2023-05-04T03:13:33.532Z,16.58
2023-05-04T03:16:00.651Z,14.88
2023-05-04T03:18:27.729Z,15.20
2023-05-04T03:20:54.899Z,17.00
2023-05-04T03:23:22.134Z,19.35
2023-05-04T03:25:49.543Z,13.88
2023-05-04T03:28:16.774Z,17.08
2023-05-04T03:30:43.918Z,17.15
2023-05-04T03:33:11.022Z,17.95
2023-05-04T03:35:38.220Z,16.98
2023-05-04T03:38:07.650Z,17.13
2023-05-04T03:40:34.768Z,15.48
2023-05-04T03:43:02.064Z,15.35
2023-05-04T03:45:29.333Z,16.90
2023-05-04T03:47:56.656Z,15.52
2023-05-04T03:50:24.153Z,16.23
2023-05-04T03:52:51.878Z,17.73
2023-05-04T03:55:19.331Z,19.00
2023-05-04T03:57:47.019Z,15.90
2023-05-04T04:00:14.709Z,14.70
2023-05-04T04:02:42.190Z,17.60
2023-05-04T04:05:09.639Z,18.60
2023-05-04T04:07:36.863Z,19.10
2023-05-04T04:10:04.904Z,21.27
2023-05-04T04:12:32.313Z,19.27
2023-05-04T04:14:59.613Z,20.92
2023-05-04T04:17:26.811Z,19.38
2023-05-04T04:19:53.930Z,17.88
2023-05-04T04:22:21.058Z,16.08
2023-05-04T04:24:48.297Z,19.88
2023-05-04T04:27:15.480Z,19.27
2023-05-04T04:29:43.039Z,20.17
2023-05-04T04:32:10.605Z,18.63
2023-05-04T04:34:38.002Z,19.08
2023-05-04T04:37:05.227Z,18.25
2023-05-04T04:39:32.942Z,21.02
2023-05-04T04:42:00.141Z,24.40
2023-05-04T04:44:27.551Z,20.35
2023-05-04T04:46:54.916Z,21.55
2023-05-04T04:49:22.606Z,17.85
2023-05-04T04:51:50.414Z,18.23
2023-05-04T04:54:17.613Z,17.00
2023-05-04T04:56:46.196Z,16.98
2023-05-04T04:59:14.091Z,18.85
2023-05-04T05:01:44.178Z,18.02
2023-05-04T05:04:11.660Z,18.58
2023-05-04T05:06:38.881Z,17.25
2023-05-04T05:09:06.285Z,15.15
2023-05-04T05:11:34.096Z,22.00
2023-05-04T05:14:01.471Z,15.05
2023-05-04T05:16:28.857Z,18.42
2023-05-04T05:18:56.054Z,21.77
2023-05-04T05:21:23.207Z,18.42
2023-05-04T05:23:50.362Z,21.33
2023-05-04T05:26:17.786Z,24.70
2023-05-04T05:28:45.061Z,22.70
2023-05-04T05:31:12.781Z,19.70
2023-05-04T05:33:40.878Z,19.13
2023-05-04T05:36:08.201Z,18.30
2023-05-04T05:38:35.470Z,20.20
2023-05-04T05:41:02.640Z,20.67
2023-05-04T05:43:30.108Z,21.63
2023-05-04T05:45:57.556Z,17.08
2023-05-04T05:48:24.766Z,19.70
2023-05-04T05:50:51.996Z,17.77
2023-05-04T05:53:19.339Z,20.00
2023-05-04T05:55:47.296Z,17.55
2023-05-04T05:58:14.469Z,22.15
2023-05-04T06:00:41.527Z,18.25
2023-05-04T06:03:08.753Z,16.85
2023-05-04T06:05:35.873Z,14.07
2023-05-04T06:08:04.358Z,18.50
2023-05-04T06:10:31.810Z,15.85
2023-05-04T06:12:59.264Z,16.13
2023-05-04T06:15:26.562Z,18.67
2023-05-04T06:17:53.694Z,18.13
2023-05-04T06:20:20.982Z,14.98
2023-05-04T06:22:48.462Z,16.52
2023-05-04T06:25:15.512Z,17.88
2023-05-04T06:27:42.902Z,15.35
2023-05-04T06:30:10.586Z,14.85
2023-05-04T06:32:37.842Z,17.48
2023-05-04T06:35:06.336Z,15.63
2023-05-04T06:37:33.409Z,16.70
2023-05-04T06:40:00.622Z,17.38
2023-05-04T06:42:31.697Z,14.75
2023-05-04T06:44:59.027Z,15.23
2023-05-04T06:47:26.265Z,15.02
2023-05-04T06:49:53.388Z,15.70
2023-05-04T06:52:20.573Z,15.93
2023-05-04T06:54:48.090Z,14.73
2023-05-04T06:57:15.179Z,14.98
2023-05-04T06:59:42.170Z,16.60
2023-05-04T07:02:09.355Z,17.80
2023-05-04T07:04:36.445Z,12.65
2023-05-04T07:07:03.701Z,13.30
2023-05-04T07:09:30.825Z,15.82
2023-05-04T07:11:57.921Z,15.35
2023-05-04T07:14:25.274Z,13.93
2023-05-04T07:16:52.624Z,12.48
2023-05-04T07:19:19.854Z,13.05
2023-05-04T07:21:47.604Z,11.75
2023-05-04T07:24:14.870Z,11.60
2023-05-04T07:26:41.993Z,13.15
2023-05-04T07:29:09.740Z,14.38
2023-05-04T07:31:38.435Z,10.68
2023-05-04T07:34:05.669Z,12.95
2023-05-04T07:36:35.633Z,12.23
2023-05-04T07:39:02.905Z,12.75
2023-05-04T07:41:29.909Z,10.48
2023-05-04T07:43:57.200Z,16.05
2023-05-04T07:46:24.388Z,14.48
2023-05-04T07:48:51.631Z,12.60
2023-05-04T07:51:18.655Z,9.13
2023-05-04T07:53:45.747Z,8.77
2023-05-04T07:56:13.844Z,12.40
2023-05-04T07:58:41.481Z,10.05
2023-05-04T08:01:08.463Z,12.15
2023-05-04T08:03:35.470Z,9.35
2023-05-04T08:06:02.444Z,9.15
2023-05-04T08:08:29.552Z,10.07
2023-05-04T08:11:07.848Z,10.73
2023-05-04T08:13:40.313Z,12.55
2023-05-04T08:16:09.278Z,9.50
2023-05-04T08:18:37.169Z,9.95
2023-05-04T08:21:04.550Z,8.75
2023-05-04T08:23:33.553Z,8.88
2023-05-04T08:26:04.174Z,9.82
2023-05-04T08:28:36.849Z,9.02
2023-05-04T08:31:04.100Z,9.05
2023-05-04T08:33:32.033Z,7.22
2023-05-04T08:35:59.566Z,8.63
2023-05-04T08:38:26.588Z,8.43
2023-05-04T08:40:54.682Z,7.93
2023-05-04T08:43:21.638Z,7.80
2023-05-04T08:45:49.744Z,8.00
2023-05-04T08:48:16.854Z,10.02
2023-05-04T08:50:44.345Z,11.40
2023-05-04T08:53:13.836Z,8.45
2023-05-04T08:55:43.954Z,9.60
2023-05-04T08:58:13.092Z,8.93
2023-05-04T09:00:43.511Z,9.18
2023-05-04T09:03:11.297Z,8.30
2023-05-04T09:05:38.878Z,8.00
2023-05-04T09:08:06.885Z,7.40
2023-05-04T09:10:34.754Z,10.73
2023-05-04T09:13:01.998Z,10.25
2023-05-04T09:15:31.709Z,8.32
2023-05-04T09:18:03.270Z,8.55
2023-05-04T09:20:31.060Z,7.78
2023-05-04T09:23:04.280Z,10.00
2023-05-04T09:25:31.750Z,8.23
2023-05-04T09:27:58.986Z,6.25
2023-05-04T09:30:26.245Z,7.35
2023-05-04T09:32:53.880Z,14.10
2023-05-04T09:35:33.730Z,5.10
2023-05-04T09:38:01.522Z,5.88
2023-05-04T09:40:33.258Z,3.45
2023-05-04T09:43:01.203Z,5.45
2023-05-04T09:45:42.840Z,2.83
2023-05-04T09:48:17.796Z,4.10
2023-05-04T09:50:49.889Z,4.55
2023-05-04T09:53:20.035Z,6.13
2023-05-04T09:55:51.523Z,5.80
2023-05-04T09:58:19.806Z,6.75
2023-05-04T10:00:46.885Z,3.17
2023-05-04T10:03:14.726Z,3.40
2023-05-04T10:05:42.092Z,2.67
2023-05-04T10:08:09.337Z,2.85
2023-05-04T10:10:39.484Z,2.78
2023-05-04T10:13:06.906Z,3.85
2023-05-04T10:15:35.417Z,3.38
2023-05-04T10:18:29.361Z,2.15
2023-05-04T10:21:28.931Z,3.33
2023-05-04T10:24:33.144Z,2.58
2023-05-04T10:27:12.075Z,4.18
2023-05-04T10:29:39.823Z,3.63
2023-05-04T10:32:17.995Z,3.22
2023-05-04T10:34:45.413Z,2.65
2023-05-04T10:37:20.259Z,2.53
2023-05-04T10:39:54.453Z,2.30
2023-05-04T10:42:21.962Z,4.90
2023-05-04T10:44:56.505Z,6.10
2023-05-04T10:47:34.164Z,3.78
2023-05-04T10:50:08.799Z,2.67
2023-05-04T10:52:49.935Z,3.58
2023-05-04T10:55:18.349Z,3.35
2023-05-04T10:57:49.878Z,4.20
2023-05-04T11:00:18.224Z,3.50
2023-05-04T11:02:47.314Z,2.50
2023-05-04T11:05:19.592Z,4.13
2023-05-04T11:07:50.738Z,2.80
2023-05-04T11:10:35.944Z,2.85
2023-05-04T11:13:05.920Z,3.97
2023-05-04T11:15:44.856Z,6.53
2023-05-04T11:18:12.012Z,4.55
2023-05-04T11:20:39.015Z,2.60
2023-05-04T11:23:10.152Z,2.90
2023-05-04T11:25:37.768Z,3.72
2023-05-04T11:28:05.039Z,2.88
2023-05-04T11:30:35.778Z,2.92
2023-05-04T11:33:05.160Z,8.30
2023-05-04T11:35:33.149Z,3.38
2023-05-04T11:38:00.131Z,4.50
2023-05-04T11:40:27.866Z,2.67
2023-05-04T11:42:57.283Z,3.88
2023-05-04T11:45:29.927Z,3.08
2023-05-04T11:47:58.688Z,1.90
2023-05-04T11:50:27.144Z,2.88
2023-05-04T11:53:13.690Z,4.38
2023-05-04T11:55:42.087Z,3.83
2023-05-04T11:58:11.812Z,3.65
2023-05-04T12:00:43.892Z,3.00
2023-05-04T12:03:13.340Z,3.85
2023-05-04T12:05:48.495Z,5.22
2023-05-04T12:08:32.858Z,2.22
2023-05-04T12:13:37.536Z,2.67
2023-05-04T12:16:20.999Z,2.58
2023-05-04T12:18:48.362Z,7.03
2023-05-04T12:21:20.354Z,2.97
2023-05-04T12:23:47.834Z,6.88
2023-05-04T12:26:18.033Z,2.80
2023-05-04T12:28:46.628Z,1.98
2023-05-04T12:31:13.690Z,3.55
2023-05-04T12:33:40.918Z,3.85
2023-05-04T12:36:08.302Z,5.53
2023-05-04T12:38:35.671Z,6.50
2023-05-04T12:41:04.625Z,3.08
2023-05-04T12:43:33.147Z,3.75
2023-05-04T12:46:00.560Z,7.38
2023-05-04T12:48:29.877Z,2.72
2023-05-04T12:50:56.823Z,3.65
2023-05-04T12:53:27.903Z,2.83
2023-05-04T12:55:55.840Z,3.97
2023-05-04T12:58:22.878Z,3.03
2023-05-04T13:00:49.836Z,2.35
2023-05-04T13:03:18.042Z,4.65
2023-05-04T13:05:49.870Z,7.10
2023-05-04T13:08:18.397Z,4.88
2023-05-04T13:10:46.394Z,2.90
2023-05-04T13:13:16.362Z,6.25
2023-05-04T13:15:44.656Z,4.28
2023-05-04T13:18:13.141Z,2.88
2023-05-04T13:20:40.847Z,3.78
2023-05-04T13:23:08.267Z,3.00
2023-05-04T13:25:35.272Z,3.72
2023-05-04T13:28:02.321Z,3.80
2023-05-04T13:30:30.189Z,2.95
2023-05-04T13:32:57.308Z,4.00
2023-05-04T13:35:24.570Z,3.20
2023-05-04T13:37:51.620Z,2.92
2023-05-04T13:40:18.795Z,4.28
2023-05-04T13:42:45.979Z,5.90
2023-05-04T13:45:13.225Z,5.10
2023-05-04T13:47:40.776Z,3.75
2023-05-04T13:50:08.734Z,2.80
2023-05-04T13:52:36.902Z,5.95
2023-05-04T13:55:04.826Z,6.78
2023-05-04T13:57:32.256Z,4.15
2023-05-04T14:00:07.247Z,3.88
2023-05-04T14:02:35.553Z,3.90
2023-05-04T14:05:04.183Z,3.10
2023-05-04T14:07:31.600Z,5.18
2023-05-04T14:09:59.576Z,3.42
2023-05-04T14:12:27.483Z,4.25
2023-05-04T14:14:54.593Z,5.07
2023-05-04T14:17:21.733Z,3.63
2023-05-04T14:19:48.743Z,3.70
2023-05-04T14:22:15.974Z,3.50
2023-05-04T14:24:43.164Z,3.92
2023-05-04T14:27:10.099Z,5.32
2023-05-04T14:29:37.048Z,5.35
2023-05-04T14:32:04.443Z,5.32
2023-05-04T14:34:32.601Z,5.13
2023-05-04T14:36:59.752Z,3.60
2023-05-04T14:39:26.766Z,3.80
2023-05-04T14:41:54.127Z,4.35
2023-05-04T14:44:22.686Z,7.95
2023-05-04T14:46:50.069Z,5.65
2023-05-04T14:49:35.053Z,7.00
2023-05-04T14:52:03.993Z,3.53
2023-05-04T14:54:31.124Z,3.88
2023-05-04T14:56:59.064Z,3.58
2023-05-04T14:59:26.636Z,4.72
2023-05-04T15:01:55.390Z,4.18
2023-05-04T15:04:22.867Z,3.78
2023-05-04T15:06:50.133Z,3.60
2023-05-04T15:09:17.237Z,2.45
2023-05-04T15:11:44.226Z,3.10
2023-05-04T15:14:11.353Z,3.63
2023-05-04T15:16:38.737Z,2.63
2023-05-04T15:19:06.373Z,3.50
2023-05-04T15:21:33.832Z,2.70
2023-05-04T15:24:01.164Z,2.50
2023-05-04T15:26:29.471Z,3.22
2023-05-04T15:28:57.147Z,2.55
2023-05-04T15:31:24.156Z,3.85
2023-05-04T15:33:51.290Z,3.97
2023-05-04T15:36:18.326Z,3.17
2023-05-04T15:38:45.384Z,4.20
2023-05-04T15:41:14.297Z,2.63
2023-05-04T15:43:41.430Z,4.95
2023-05-04T15:46:08.460Z,6.05
2023-05-04T15:48:35.459Z,5.20
2023-05-04T15:51:02.441Z,3.20
2023-05-04T15:53:29.790Z,6.75
2023-05-04T15:55:56.855Z,3.75
2023-05-04T15:58:23.856Z,2.67
2023-05-04T16:00:51.290Z,2.47
2023-05-04T16:03:18.538Z,2.95
2023-05-04T16:05:46.007Z,3.58
2023-05-04T16:08:13.054Z,3.65
2023-05-04T16:10:40.040Z,2.97
2023-05-04T16:13:09.144Z,3.63
2023-05-04T16:15:37.635Z,3.05
2023-05-04T16:18:05.073Z,4.63
2023-05-04T16:20:32.148Z,3.17
2023-05-04T16:22:59.231Z,3.05
2023-05-04T16:25:26.223Z,3.40
2023-05-04T16:27:53.503Z,12.57
2023-05-04T16:30:21.642Z,3.55
2023-05-04T16:32:48.699Z,3.13
2023-05-04T16:35:15.843Z,4.15
2023-05-04T16:37:43.491Z,4.72
2023-05-04T16:40:15.516Z,4.60
2023-05-04T16:42:43.540Z,2.92
2023-05-04T16:45:13.388Z,3.28
2023-05-04T16:47:41.729Z,4.45
2023-05-04T16:50:13.371Z,2.70
2023-05-04T16:52:40.514Z,2.63
2023-05-04T16:55:11.271Z,3.80
2023-05-04T16:57:39.198Z,4.88
2023-05-04T17:00:07.553Z,2.67
2023-05-04T17:02:36.069Z,3.47
2023-05-04T17:05:06.646Z,2.75
2023-05-04T17:07:34.224Z,3.30
2023-05-04T17:10:01.522Z,3.15
2023-05-04T17:12:29.161Z,3.83
2023-05-04T17:14:56.344Z,3.17
2023-05-04T17:17:23.456Z,3.38
2023-05-04T17:19:50.652Z,2.75
2023-05-04T17:22:17.642Z,3.72
2023-05-04T17:24:45.696Z,6.22
2023-05-04T17:27:13.282Z,3.05
2023-05-04T17:29:41.276Z,4.03
2023-05-04T17:32:08.497Z,3.95
2023-05-04T17:34:36.504Z,3.55
2023-05-04T17:37:03.759Z,2.90
2023-05-04T17:39:31.781Z,3.50
2023-05-04T17:41:59.320Z,2.90
2023-05-04T17:44:28.190Z,3.47
2023-05-04T17:46:55.189Z,3.67
2023-05-04T17:49:22.128Z,4.30
2023-05-04T17:51:49.423Z,3.92
2023-05-04T17:54:17.260Z,3.30
2023-05-04T17:56:44.366Z,4.15
2023-05-04T17:59:11.534Z,4.07
2023-05-04T18:01:38.778Z,4.63
2023-05-04T18:04:05.930Z,3.55
2023-05-04T18:06:33.064Z,4.65
2023-05-04T18:09:01.539Z,4.47
2023-05-04T18:11:28.613Z,3.38
2023-05-04T18:13:56.608Z,6.43
2023-05-04T18:16:24.985Z,4.30
2023-05-04T18:18:52.577Z,4.47
2023-05-04T18:21:19.768Z,6.00
2023-05-04T18:23:46.982Z,3.88
2023-05-04T18:26:22.674Z,4.55
2023-05-04T18:28:50.069Z,4.80
2023-05-04T18:31:17.481Z,5.47
2023-05-04T18:33:44.636Z,4.32
2023-05-04T18:36:12.067Z,3.75
2023-05-04T18:38:38.990Z,4.18
2023-05-04T18:41:06.106Z,3.05
2023-05-04T18:43:33.240Z,4.95
2023-05-04T18:46:07.368Z,5.18
2023-05-04T18:48:34.566Z,4.60
2023-05-04T18:53:29.799Z,3.65
2023-05-04T18:56:08.066Z,3.42
2023-05-04T18:58:39.049Z,4.75
2023-05-04T19:01:06.598Z,4.47
2023-05-04T19:03:34.078Z,4.25
2023-05-04T19:06:01.330Z,6.00
2023-05-04T19:08:28.385Z,8.38
2023-05-04T19:10:59.118Z,4.20
2023-05-04T19:13:26.276Z,4.60
2023-05-04T19:15:53.431Z,4.15
2023-05-04T19:18:20.513Z,5.10
2023-05-04T19:20:48.488Z,5.60
2023-05-04T19:23:15.997Z,5.95
2023-05-04T19:25:43.256Z,7.75
2023-05-04T19:28:10.315Z,8.50
2023-05-04T19:30:39.994Z,9.25
2023-05-04T19:33:08.535Z,7.38
2023-05-04T19:35:36.040Z,8.75
2023-05-04T19:38:06.150Z,5.60
2023-05-04T19:40:34.046Z,4.95
2023-05-04T19:43:01.347Z,5.20
2023-05-04T19:45:28.671Z,5.57
2023-05-04T19:47:56.064Z,6.65
2023-05-04T19:50:23.367Z,5.72
2023-05-04T19:52:50.687Z,5.50
2023-05-04T19:55:18.109Z,5.82
2023-05-04T19:57:45.367Z,6.30
2023-05-04T20:00:13.483Z,8.00
2023-05-04T20:02:40.955Z,7.32
2023-05-04T20:05:08.412Z,6.88
2023-05-04T20:07:35.720Z,6.22
2023-05-04T20:10:03.162Z,13.35
2023-05-04T20:12:30.493Z,9.25
2023-05-04T20:14:57.725Z,5.20
2023-05-04T20:17:24.761Z,9.48
2023-05-04T20:19:52.385Z,9.75
2023-05-04T20:22:19.783Z,4.68
2023-05-04T20:24:47.620Z,10.00
2023-05-04T20:27:14.759Z,7.85
2023-05-04T20:29:41.789Z,9.63
2023-05-04T20:32:09.307Z,5.55
2023-05-04T20:34:39.252Z,7.18
2023-05-04T20:37:06.585Z,6.88
2023-05-04T20:39:33.664Z,9.98
2023-05-04T20:42:00.975Z,7.38
2023-05-04T20:44:28.217Z,7.10
2023-05-04T20:46:55.290Z,6.90
2023-05-04T20:49:22.348Z,6.10
2023-05-04T20:51:49.496Z,5.70
2023-05-04T20:54:17.179Z,7.45
2023-05-04T20:56:44.495Z,6.63
2023-05-04T20:59:11.673Z,7.88
2023-05-04T21:01:38.869Z,6.70
2023-05-04T21:04:06.055Z,7.00
2023-05-04T21:06:33.259Z,6.97
2023-05-04T21:09:04.460Z,5.72
2023-05-04T21:11:31.625Z,6.75
2023-05-04T21:13:58.821Z,7.45
2023-05-04T21:16:25.927Z,7.05
2023-05-04T21:18:53.277Z,5.55
2023-05-04T21:21:20.929Z,6.90
2023-05-04T21:23:48.141Z,9.65
2023-05-04T21:26:15.915Z,6.07
2023-05-04T21:28:43.095Z,7.88
2023-05-04T21:31:10.503Z,5.75
2023-05-04T21:33:37.705Z,8.55
2023-05-04T21:36:13.027Z,5.68
2023-05-04T21:38:40.221Z,5.55
2023-05-04T21:41:14.992Z,6.68
2023-05-04T21:43:42.656Z,5.45
2023-05-04T21:46:11.602Z,7.65
2023-05-04T21:48:38.893Z,6.38
2023-05-04T21:51:06.551Z,5.32
2023-05-04T21:53:33.732Z,5.50
2023-05-04T21:56:01.963Z,5.18
2023-05-04T21:58:29.098Z,5.55
2023-05-04T22:00:56.432Z,7.03
2023-05-04T22:03:23.810Z,6.97
2023-05-04T22:05:57.792Z,4.78
2023-05-04T22:08:28.705Z,5.75
2023-05-04T22:10:57.734Z,5.95
2023-05-04T22:13:24.972Z,5.00
2023-05-04T22:15:52.676Z,5.55
2023-05-04T22:18:20.689Z,6.68
2023-05-04T22:20:48.017Z,6.13
2023-05-04T22:23:15.468Z,4.88
2023-05-04T22:25:42.659Z,4.95
2023-05-04T22:28:09.821Z,7.25
2023-05-04T22:30:36.920Z,4.80
2023-05-04T22:33:04.290Z,7.82
2023-05-04T22:35:31.620Z,8.13
2023-05-04T22:37:59.020Z,6.25
2023-05-04T22:40:26.435Z,8.15
2023-05-04T22:42:53.822Z,7.18
2023-05-04T22:45:21.139Z,6.05
2023-05-04T22:47:48.416Z,6.38
2023-05-04T22:50:15.660Z,7.68
2023-05-04T22:52:42.864Z,6.78
2023-05-04T22:55:10.162Z,7.22
2023-05-04T22:57:37.317Z,6.70
2023-05-04T23:00:08.317Z,6.78
2023-05-04T23:02:36.344Z,5.68
2023-05-04T23:05:04.041Z,7.00
2023-05-04T23:07:31.256Z,7.80
2023-05-04T23:09:58.384Z,5.18
2023-05-04T23:12:27.148Z,6.15
2023-05-04T23:14:54.773Z,6.57
2023-05-04T23:17:22.250Z,10.50
2023-05-04T23:19:49.480Z,6.32
2023-05-04T23:22:16.588Z,6.47
2023-05-04T23:24:44.071Z,6.13
2023-05-04T23:27:11.558Z,5.53
2023-05-04T23:29:38.958Z,6.63
2023-05-04T23:32:06.541Z,8.30
2023-05-04T23:34:33.751Z,4.88
2023-05-04T23:37:01.143Z,7.53
2023-05-04T23:39:28.275Z,5.53
2023-05-04T23:41:55.467Z,7.70
2023-05-04T23:44:22.855Z,5.90
2023-05-04T23:46:50.047Z,4.78
2023-05-04T23:49:17.226Z,7.78
2023-05-04T23:51:44.493Z,6.45
2023-05-04T23:54:11.824Z,6.15
2023-05-04T23:56:39.124Z,9.13
2023-05-04T23:59:06.174Z,7.68
